createdAt,value
2022-10-09T00:00:12.701Z,5.17
2022-10-09T00:00:45.899Z,4.75
2022-10-09T00:01:20.588Z,5.40
2022-10-09T00:01:55.515Z,4.97
2022-10-09T00:02:27.861Z,3.75
2022-10-09T00:03:00.095Z,4.38
2022-10-09T00:03:32.718Z,4.60
2022-10-09T00:04:08.186Z,3.83
2022-10-09T00:05:31.727Z,3.90
2022-10-09T00:06:05.349Z,3.40
2022-10-09T00:06:40.264Z,3.40
2022-10-09T00:07:12.518Z,3.42
2022-10-09T00:07:44.718Z,2.92
2022-10-09T00:08:17.309Z,3.13
2022-10-09T00:08:52.214Z,2.80
2022-10-09T00:09:24.444Z,2.80
2022-10-09T00:09:56.659Z,2.58
2022-10-09T00:10:29.154Z,3.00
2022-10-09T00:11:08.882Z,3.10
2022-10-09T00:11:41.113Z,2.78
2022-10-09T00:12:15.930Z,3.08
2022-10-09T00:12:48.430Z,2.25
2022-10-09T00:13:21.002Z,2.33
2022-10-09T00:13:56.833Z,2.60
2022-10-09T00:14:29.049Z,2.70
2022-10-09T00:15:01.318Z,2.70
2022-10-09T00:15:34.282Z,2.85
2022-10-09T00:16:11.357Z,2.50
2022-10-09T00:16:43.588Z,3.00
2022-10-09T00:17:15.819Z,2.90
2022-10-09T00:17:50.694Z,3.30
2022-10-09T00:18:22.936Z,3.50
2022-10-09T00:18:55.661Z,3.97
2022-10-09T00:19:30.599Z,4.13
2022-10-09T00:20:03.042Z,4.03
2022-10-09T00:20:39.725Z,4.05
2022-10-09T00:21:23.424Z,4.05
2022-10-09T00:21:55.645Z,4.10
2022-10-09T00:22:28.470Z,4.47
2022-10-09T00:23:03.345Z,4.75
2022-10-09T00:23:35.726Z,3.72
2022-10-09T00:24:07.980Z,4.82
2022-10-09T00:24:42.915Z,4.68
2022-10-09T00:25:15.254Z,4.15
2022-10-09T00:26:37.729Z,3.92
2022-10-09T00:27:09.958Z,4.43
2022-10-09T00:27:42.178Z,5.30
2022-10-09T00:28:17.138Z,6.65
2022-10-09T00:28:50.027Z,8.73
2022-10-09T00:29:24.930Z,6.30
2022-10-09T00:29:57.155Z,5.30
2022-10-09T00:30:29.618Z,6.93
2022-10-09T00:31:04.683Z,5.35
2022-10-09T00:31:39.546Z,8.13
2022-10-09T00:32:11.746Z,8.02
2022-10-09T00:32:43.950Z,9.88
2022-10-09T00:33:16.256Z,6.47
2022-10-09T00:33:51.126Z,6.07
2022-10-09T00:35:13.835Z,7.72
2022-10-09T00:35:46.060Z,5.35
2022-10-09T00:36:20.073Z,7.25
2022-10-09T00:36:54.882Z,9.93
2022-10-09T00:37:28.523Z,5.97
2022-10-09T00:38:00.713Z,6.38
2022-10-09T00:38:35.897Z,5.40
2022-10-09T00:39:08.107Z,7.30
2022-10-09T00:39:40.333Z,6.80
2022-10-09T00:40:15.266Z,5.63
2022-10-09T00:40:47.501Z,5.55
2022-10-09T00:41:21.573Z,6.10
2022-10-09T00:41:56.394Z,6.13
2022-10-09T00:42:28.629Z,6.18
2022-10-09T00:43:00.929Z,5.28
2022-10-09T00:45:00.739Z,5.70
2022-10-09T00:45:35.565Z,6.90
2022-10-09T00:46:14.887Z,5.15
2022-10-09T00:46:51.733Z,6.95
2022-10-09T00:47:30.211Z,6.35
2022-10-09T00:48:04.623Z,9.48
2022-10-09T00:48:39.492Z,5.65
2022-10-09T00:49:16.307Z,5.20
2022-10-09T00:49:48.894Z,4.95
2022-10-09T00:50:26.466Z,4.88
2022-10-09T00:51:01.626Z,5.18
2022-10-09T00:51:34.839Z,4.65
2022-10-09T00:52:10.550Z,5.50
2022-10-09T00:52:44.096Z,4.57
2022-10-09T00:53:18.173Z,5.20
2022-10-09T00:53:50.723Z,4.70
2022-10-09T00:54:28.015Z,4.40
2022-10-09T00:55:01.073Z,5.80
2022-10-09T00:55:35.142Z,5.22
2022-10-09T00:56:09.978Z,5.40
2022-10-09T00:56:42.413Z,4.57
2022-10-09T00:57:14.742Z,4.25
2022-10-09T00:57:49.638Z,4.80
2022-10-09T00:58:22.669Z,3.83
2022-10-09T00:58:56.301Z,4.20
2022-10-09T00:59:28.769Z,3.58
2022-10-09T01:00:07.126Z,3.30
2022-10-09T01:00:42.131Z,4.78
2022-10-09T01:01:14.405Z,3.53
2022-10-09T01:01:49.715Z,3.55
2022-10-09T01:02:22.156Z,4.00
2022-10-09T01:02:55.071Z,3.40
2022-10-09T01:03:30.031Z,3.45
2022-10-09T01:04:02.285Z,3.53
2022-10-09T01:04:34.822Z,3.80
2022-10-09T01:05:11.895Z,3.92
2022-10-09T01:05:52.729Z,3.60
2022-10-09T01:06:34.070Z,3.75
2022-10-09T01:07:23.773Z,3.58
2022-10-09T01:08:00.034Z,4.63
2022-10-09T01:08:38.438Z,3.53
2022-10-09T01:09:17.162Z,3.58
2022-10-09T01:09:55.050Z,3.90
2022-10-09T01:10:33.420Z,4.15
2022-10-09T01:11:12.676Z,4.65
2022-10-09T01:11:50.401Z,4.22
2022-10-09T01:12:33.094Z,5.00
2022-10-09T01:13:10.870Z,5.65
2022-10-09T01:13:47.378Z,5.65
2022-10-09T01:14:27.870Z,6.53
2022-10-09T01:15:06.791Z,5.43
2022-10-09T01:15:45.179Z,4.03
2022-10-09T01:16:24.614Z,4.60
2022-10-09T01:17:02.400Z,4.90
2022-10-09T01:17:39.024Z,4.25
2022-10-09T01:18:18.442Z,5.30
2022-10-09T01:18:55.655Z,4.07
2022-10-09T01:19:56.403Z,3.75
2022-10-09T01:20:33.464Z,4.50
2022-10-09T01:21:09.567Z,3.92
2022-10-09T01:21:47.162Z,4.90
2022-10-09T01:22:28.346Z,4.43
2022-10-09T01:23:13.782Z,4.40
2022-10-09T01:24:00.618Z,6.60
2022-10-09T01:24:37.097Z,4.10
2022-10-09T01:25:11.928Z,3.97
2022-10-09T01:25:53.151Z,4.00
2022-10-09T01:26:34.953Z,4.30
2022-10-09T01:27:14.337Z,3.80
2022-10-09T01:27:46.551Z,3.75
2022-10-09T01:28:19.951Z,3.88
2022-10-09T01:28:54.666Z,3.97
2022-10-09T01:29:31.689Z,3.90
2022-10-09T01:30:06.699Z,4.20
2022-10-09T01:30:39.007Z,4.40
2022-10-09T01:31:15.158Z,3.60
2022-10-09T01:31:49.271Z,3.92
2022-10-09T01:32:27.938Z,3.55
2022-10-09T01:33:00.170Z,3.67
2022-10-09T01:33:33.101Z,3.28
2022-10-09T01:34:05.822Z,4.00
2022-10-09T01:34:42.381Z,3.10
2022-10-09T01:35:15.163Z,3.08
2022-10-09T01:35:47.665Z,3.63
2022-10-09T01:36:23.430Z,3.42
2022-10-09T01:36:57.033Z,3.25
2022-10-09T01:37:29.954Z,2.85
2022-10-09T01:38:05.367Z,2.78
2022-10-09T01:38:39.734Z,2.63
2022-10-09T01:39:15.389Z,2.75
2022-10-09T01:39:50.804Z,2.80
2022-10-09T01:40:24.219Z,2.80
2022-10-09T01:40:56.982Z,2.30
2022-10-09T01:41:32.355Z,4.03
2022-10-09T01:42:05.038Z,3.05
2022-10-09T01:42:39.873Z,3.00
2022-10-09T01:43:14.866Z,3.10
2022-10-09T01:43:47.064Z,3.03
2022-10-09T01:44:20.785Z,3.08
2022-10-09T01:44:55.607Z,2.95
2022-10-09T01:45:37.949Z,2.70
2022-10-09T01:46:21.201Z,2.97
2022-10-09T01:46:56.565Z,2.80
2022-10-09T01:48:27.001Z,2.92
2022-10-09T01:49:09.362Z,3.40
2022-10-09T01:49:45.743Z,2.38
2022-10-09T01:50:26.057Z,2.50
2022-10-09T01:51:02.286Z,3.17
2022-10-09T01:51:39.194Z,2.65
2022-10-09T01:52:23.591Z,3.03
2022-10-09T01:53:00.294Z,2.85
2022-10-09T01:53:33.786Z,4.53
2022-10-09T01:54:10.425Z,3.30
2022-10-09T01:54:52.837Z,3.00
2022-10-09T01:55:34.393Z,3.70
2022-10-09T01:56:09.957Z,3.30
2022-10-09T01:56:44.905Z,3.80
2022-10-09T01:57:25.280Z,3.70
2022-10-09T01:58:01.700Z,3.50
2022-10-09T01:58:37.079Z,3.75
2022-10-09T01:59:16.161Z,3.92
2022-10-09T01:59:49.478Z,3.60
2022-10-09T02:00:22.178Z,3.55
2022-10-09T02:01:01.618Z,3.97
2022-10-09T02:01:35.841Z,4.63
2022-10-09T02:02:08.368Z,3.60
2022-10-09T02:02:41.945Z,3.83
2022-10-09T02:03:21.047Z,3.60
2022-10-09T02:03:53.888Z,4.95
2022-10-09T02:04:26.493Z,4.05
2022-10-09T02:05:01.724Z,3.88
2022-10-09T02:05:34.483Z,4.35
2022-10-09T02:06:08.468Z,3.83
2022-10-09T02:06:45.001Z,4.13
2022-10-09T02:07:18.377Z,4.47
2022-10-09T02:07:50.622Z,3.30
2022-10-09T02:08:26.903Z,3.67
2022-10-09T02:08:59.673Z,3.30
2022-10-09T02:09:32.100Z,3.47
2022-10-09T02:10:09.502Z,3.08
2022-10-09T02:10:43.217Z,3.60
2022-10-09T02:11:15.846Z,3.17
2022-10-09T02:11:56.070Z,3.03
2022-10-09T02:12:30.505Z,3.85
2022-10-09T02:13:02.814Z,3.10
2022-10-09T02:13:38.545Z,3.33
2022-10-09T02:14:10.990Z,3.00
2022-10-09T02:14:43.233Z,3.35
2022-10-09T02:15:16.309Z,2.85
2022-10-09T02:15:54.665Z,2.75
2022-10-09T02:16:36.802Z,3.42
2022-10-09T02:18:16.413Z,2.60
2022-10-09T02:18:55.023Z,2.60
2022-10-09T02:19:30.802Z,4.00
2022-10-09T02:20:10.314Z,2.60
2022-10-09T02:20:45.869Z,2.60
2022-10-09T02:21:22.734Z,7.32
2022-10-09T02:22:00.042Z,2.42
2022-10-09T02:22:33.593Z,2.65
2022-10-09T02:23:08.213Z,2.30
2022-10-09T02:23:44.952Z,2.33
2022-10-09T02:24:19.722Z,2.72
2022-10-09T02:24:52.818Z,2.83
2022-10-09T02:25:27.773Z,2.17
2022-10-09T02:26:00.050Z,2.15
2022-10-09T02:26:32.992Z,2.70
2022-10-09T02:27:08.474Z,2.63
2022-10-09T02:27:40.781Z,2.35
2022-10-09T02:28:13.093Z,2.00
2022-10-09T02:28:48.223Z,2.47
2022-10-09T02:29:20.740Z,2.15
2022-10-09T02:29:53.150Z,2.08
2022-10-09T02:30:28.451Z,1.93
2022-10-09T02:31:04.350Z,2.20
2022-10-09T02:31:38.040Z,2.45
2022-10-09T02:32:13.177Z,2.38
2022-10-09T02:32:45.493Z,2.15
2022-10-09T02:33:27.314Z,2.15
2022-10-09T02:34:03.752Z,1.88
2022-10-09T02:34:36.036Z,1.92
2022-10-09T02:35:09.161Z,2.28
2022-10-09T02:35:44.033Z,1.90
2022-10-09T02:36:16.450Z,1.83
2022-10-09T02:36:48.735Z,1.92
2022-10-09T02:37:23.601Z,2.15
2022-10-09T02:37:55.847Z,2.10
2022-10-09T02:38:28.114Z,1.83
2022-10-09T02:39:03.222Z,2.00
2022-10-09T02:39:35.482Z,1.85
2022-10-09T02:40:10.855Z,1.93
2022-10-09T02:40:45.911Z,1.80
2022-10-09T02:41:18.205Z,2.47
2022-10-09T02:41:50.426Z,1.83
2022-10-09T02:42:26.087Z,1.77
2022-10-09T02:42:58.662Z,1.60
2022-10-09T02:43:30.926Z,1.95
2022-10-09T02:44:06.261Z,1.83
2022-10-09T02:44:38.458Z,1.45
2022-10-09T02:45:11.230Z,1.60
2022-10-09T02:45:46.080Z,1.83
2022-10-09T02:46:18.952Z,1.92
2022-10-09T02:46:51.484Z,1.60
2022-10-09T02:47:26.457Z,2.20
2022-10-09T02:47:58.669Z,1.42
2022-10-09T02:48:33.473Z,1.40
2022-10-09T02:49:08.536Z,1.70
2022-10-09T02:49:40.782Z,1.77
2022-10-09T02:50:13.014Z,1.73
2022-10-09T02:50:47.855Z,1.77
2022-10-09T02:51:20.838Z,1.80
2022-10-09T02:51:53.081Z,1.70
2022-10-09T02:52:27.970Z,1.90
2022-10-09T02:53:00.197Z,1.70
2022-10-09T02:53:32.442Z,1.67
2022-10-09T02:54:07.926Z,3.20
2022-10-09T02:54:40.158Z,1.75
2022-10-09T02:55:12.392Z,1.92
2022-10-09T02:55:47.203Z,1.80
2022-10-09T02:56:19.606Z,1.70
2022-10-09T02:56:51.894Z,1.80
2022-10-09T02:57:26.710Z,1.90
2022-10-09T02:57:58.981Z,1.40
2022-10-09T02:58:32.046Z,1.45
2022-10-09T02:59:07.074Z,1.70
2022-10-09T02:59:39.308Z,1.67
2022-10-09T03:00:13.165Z,1.30
2022-10-09T03:00:51.281Z,1.67
2022-10-09T03:01:24.263Z,1.80
2022-10-09T03:01:56.622Z,1.80
2022-10-09T03:02:31.620Z,1.60
2022-10-09T03:03:04.172Z,1.40
2022-10-09T03:03:39.337Z,1.83
2022-10-09T03:04:14.153Z,1.60
2022-10-09T03:04:46.373Z,1.60
2022-10-09T03:05:18.653Z,1.30
2022-10-09T03:06:00.225Z,1.08
2022-10-09T03:06:35.081Z,1.50
2022-10-09T03:07:07.297Z,1.42
2022-10-09T03:07:39.506Z,1.58
2022-10-09T03:08:14.472Z,1.38
2022-10-09T03:09:37.755Z,1.63
2022-10-09T03:10:10.462Z,1.65
2022-10-09T03:10:42.690Z,1.40
2022-10-09T03:11:16.352Z,1.17
2022-10-09T03:11:51.197Z,1.20
2022-10-09T03:12:23.406Z,1.50
2022-10-09T03:12:55.706Z,1.40
2022-10-09T03:13:27.991Z,1.55
2022-10-09T03:14:02.870Z,1.40
2022-10-09T03:14:35.422Z,1.80
2022-10-09T03:15:09.503Z,1.43
2022-10-09T03:15:44.564Z,1.35
2022-10-09T03:16:18.332Z,1.10
2022-10-09T03:16:50.734Z,1.50
2022-10-09T03:17:22.977Z,1.40
2022-10-09T03:17:57.814Z,1.55
2022-10-09T03:18:30.564Z,1.45
2022-10-09T03:19:02.822Z,1.40
2022-10-09T03:19:37.683Z,1.40
2022-10-09T03:20:10.322Z,1.08
2022-10-09T03:20:42.538Z,1.30
2022-10-09T03:21:17.009Z,1.30
2022-10-09T03:21:51.830Z,1.27
2022-10-09T03:22:24.143Z,1.60
2022-10-09T03:22:56.593Z,1.40
2022-10-09T03:23:30.038Z,1.33
2022-10-09T03:24:04.850Z,1.50
2022-10-09T03:24:39.654Z,1.30
2022-10-09T03:25:11.898Z,1.37
2022-10-09T03:25:46.702Z,1.53
2022-10-09T03:26:20.325Z,1.53
2022-10-09T03:26:55.131Z,1.40
2022-10-09T03:27:27.409Z,1.60
2022-10-09T03:27:59.614Z,1.63
2022-10-09T03:28:32.222Z,1.60
2022-10-09T03:29:07.093Z,1.60
2022-10-09T03:29:39.314Z,1.80
2022-10-09T03:30:12.387Z,1.30
2022-10-09T03:30:44.634Z,1.20
2022-10-09T03:31:50.055Z,1.50
2022-10-09T03:32:12.824Z,1.43
2022-10-09T03:32:47.985Z,1.60
2022-10-09T03:33:20.892Z,1.80
2022-10-09T03:33:53.104Z,1.30
2022-10-09T03:34:28.098Z,1.50
2022-10-09T03:35:00.315Z,1.50
2022-10-09T03:35:32.540Z,1.40
2022-10-09T03:36:08.934Z,1.47
2022-10-09T03:36:44.808Z,1.50
2022-10-09T03:37:17.114Z,1.50
2022-10-09T03:37:49.338Z,1.20
2022-10-09T03:38:24.201Z,1.20
2022-10-09T03:38:56.413Z,1.47
2022-10-09T03:39:28.626Z,1.30
2022-10-09T03:40:51.808Z,1.30
2022-10-09T03:41:24.046Z,1.30
2022-10-09T03:41:56.308Z,1.80
2022-10-09T03:42:31.142Z,1.57
2022-10-09T03:43:03.735Z,1.57
2022-10-09T03:43:36.973Z,1.30
2022-10-09T03:44:11.804Z,1.43
2022-10-09T03:44:44.062Z,1.53
2022-10-09T03:45:16.356Z,1.33
2022-10-09T03:45:48.557Z,1.50
2022-10-09T03:46:23.458Z,1.47
2022-10-09T03:46:55.717Z,1.30
2022-10-09T03:47:27.937Z,1.43
2022-10-09T03:48:33.613Z,1.50
2022-10-09T03:49:06.230Z,1.53
2022-10-09T03:49:38.805Z,1.50
2022-10-09T03:50:13.993Z,1.33
2022-10-09T03:50:46.546Z,1.50
2022-10-09T03:51:19.166Z,1.70
2022-10-09T03:51:54.010Z,1.37
2022-10-09T03:52:26.257Z,1.50
2022-10-09T03:52:58.623Z,1.70
2022-10-09T03:53:34.042Z,1.60
2022-10-09T03:54:06.705Z,1.70
2022-10-09T03:54:38.922Z,1.77
2022-10-09T03:55:13.737Z,1.70
2022-10-09T03:55:48.565Z,1.50
2022-10-09T03:56:20.774Z,3.27
2022-10-09T03:56:55.616Z,1.73
2022-10-09T03:57:27.864Z,1.87
2022-10-09T03:58:00.094Z,1.80
2022-10-09T03:58:34.958Z,1.87
2022-10-09T03:59:09.621Z,2.10
2022-10-09T03:59:41.848Z,1.80
2022-10-09T04:00:18.068Z,1.70
2022-10-09T04:00:52.238Z,1.60
2022-10-09T04:01:30.564Z,1.80
2022-10-09T04:02:04.075Z,1.53
2022-10-09T04:02:36.533Z,1.40
2022-10-09T04:03:11.466Z,1.40
2022-10-09T04:03:43.788Z,1.50
2022-10-09T04:04:20.571Z,1.57
2022-10-09T04:04:53.381Z,1.60
2022-10-09T04:05:29.155Z,1.57
2022-10-09T04:06:09.470Z,1.43
2022-10-09T04:06:41.800Z,1.63
2022-10-09T04:07:14.053Z,1.87
2022-10-09T04:07:51.087Z,2.00
2022-10-09T04:08:23.498Z,1.63
2022-10-09T04:08:56.853Z,1.80
2022-10-09T04:09:29.151Z,1.50
2022-10-09T04:10:04.021Z,1.83
2022-10-09T04:10:36.346Z,1.77
2022-10-09T04:11:11.155Z,1.80
2022-10-09T04:11:46.038Z,1.80
2022-10-09T04:12:18.314Z,1.50
2022-10-09T04:12:50.817Z,2.07
2022-10-09T04:13:25.829Z,1.60
2022-10-09T04:13:58.109Z,1.50
2022-10-09T04:14:33.441Z,1.90
2022-10-09T04:15:09.184Z,1.83
2022-10-09T04:15:41.410Z,2.00
2022-10-09T04:16:13.754Z,1.70
2022-10-09T04:16:48.773Z,1.83
2022-10-09T04:17:21.624Z,1.92
2022-10-09T04:17:54.888Z,1.83
2022-10-09T04:18:31.665Z,1.70
2022-10-09T04:19:03.896Z,2.17
2022-10-09T04:19:36.365Z,1.90
2022-10-09T04:20:11.993Z,1.53
2022-10-09T04:20:45.210Z,1.57
2022-10-09T04:21:17.531Z,2.00
2022-10-09T04:21:53.016Z,1.60
2022-10-09T04:22:25.359Z,1.50
2022-10-09T04:22:57.568Z,1.87
2022-10-09T04:23:32.374Z,1.92
2022-10-09T04:24:08.400Z,1.80
2022-10-09T04:24:40.651Z,1.50
2022-10-09T04:25:15.521Z,1.60
2022-10-09T04:25:47.795Z,1.80
2022-10-09T04:26:27.521Z,1.70
2022-10-09T04:27:02.443Z,1.50
2022-10-09T04:27:34.665Z,1.97
2022-10-09T04:28:10.098Z,1.80
2022-10-09T04:28:48.321Z,1.50
2022-10-09T04:29:21.092Z,1.97
2022-10-09T04:29:53.381Z,1.63
2022-10-09T04:30:26.402Z,1.83
2022-10-09T04:31:34.333Z,1.83
2022-10-09T04:32:09.787Z,1.63
2022-10-09T04:32:42.395Z,1.77
2022-10-09T04:33:18.849Z,1.60
2022-10-09T04:33:56.740Z,1.60
2022-10-09T04:34:38.246Z,1.67
2022-10-09T04:35:16.718Z,1.33
2022-10-09T04:35:51.222Z,1.77
2022-10-09T04:36:28.885Z,1.83
2022-10-09T04:37:04.054Z,2.07
2022-10-09T04:37:36.912Z,1.77
2022-10-09T04:38:09.232Z,1.60
2022-10-09T04:38:41.515Z,1.70
2022-10-09T04:39:17.482Z,1.40
2022-10-09T04:40:39.516Z,1.63
2022-10-09T04:41:11.761Z,1.80
2022-10-09T04:41:44.021Z,1.55
2022-10-09T04:42:18.830Z,2.17
2022-10-09T04:42:51.544Z,1.80
2022-10-09T04:43:24.262Z,1.80
2022-10-09T04:44:00.028Z,1.60
2022-10-09T04:44:32.259Z,1.87
2022-10-09T04:45:08.893Z,1.50
2022-10-09T04:45:44.186Z,1.53
2022-10-09T04:46:16.609Z,1.70
2022-10-09T04:46:50.722Z,1.83
2022-10-09T04:47:26.774Z,1.80
2022-10-09T04:48:03.598Z,1.92
2022-10-09T04:48:39.140Z,2.10
2022-10-09T04:49:15.863Z,2.60
2022-10-09T04:49:50.123Z,1.53
2022-10-09T04:50:25.280Z,1.85
2022-10-09T04:51:10.655Z,1.73
2022-10-09T04:51:44.430Z,1.67
2022-10-09T04:52:20.201Z,1.75
2022-10-09T04:52:52.781Z,1.90
2022-10-09T04:53:25.460Z,1.70
2022-10-09T04:54:03.241Z,2.00
2022-10-09T04:54:36.132Z,1.70
2022-10-09T04:55:11.784Z,1.50
2022-10-09T04:55:55.505Z,1.65
2022-10-09T04:56:28.089Z,1.50
2022-10-09T04:57:04.508Z,1.73
2022-10-09T04:58:27.297Z,1.70
2022-10-09T04:58:59.549Z,1.75
2022-10-09T04:59:31.777Z,1.90
2022-10-09T05:00:07.555Z,2.13
2022-10-09T05:00:40.919Z,1.80
2022-10-09T05:01:15.277Z,2.40
2022-10-09T05:01:50.266Z,2.28
2022-10-09T05:02:22.632Z,1.95
2022-10-09T05:02:56.947Z,2.08
2022-10-09T05:03:32.051Z,1.95
2022-10-09T05:04:04.356Z,2.25
2022-10-09T05:04:37.933Z,1.75
2022-10-09T05:05:15.737Z,1.95
2022-10-09T05:05:48.013Z,1.98
2022-10-09T05:06:21.877Z,1.90
2022-10-09T05:07:14.198Z,2.25
2022-10-09T05:07:49.084Z,2.55
2022-10-09T05:08:21.299Z,1.90
2022-10-09T05:08:54.282Z,1.98
2022-10-09T05:09:29.152Z,2.08
2022-10-09T05:10:05.553Z,2.45
2022-10-09T05:10:39.774Z,2.15
2022-10-09T05:11:14.171Z,2.47
2022-10-09T05:11:49.031Z,2.20
2022-10-09T05:12:24.276Z,2.35
2022-10-09T05:12:57.989Z,2.33
2022-10-09T05:13:40.981Z,2.30
2022-10-09T05:14:13.206Z,2.15
2022-10-09T05:15:39.478Z,2.17
2022-10-09T05:16:13.970Z,2.28
2022-10-09T05:17:12.093Z,2.65
2022-10-09T05:18:33.190Z,2.30
2022-10-09T05:19:05.430Z,1.92
2022-10-09T05:19:37.679Z,2.45
2022-10-09T05:20:13.102Z,2.25
2022-10-09T05:20:45.349Z,2.10
2022-10-09T05:21:18.331Z,2.20
2022-10-09T05:21:55.967Z,2.40
2022-10-09T05:22:28.374Z,1.90
2022-10-09T05:23:02.021Z,2.40
2022-10-09T05:23:37.673Z,2.15
2022-10-09T05:24:12.798Z,1.95
2022-10-09T05:24:48.482Z,2.55
2022-10-09T05:25:23.041Z,2.38
2022-10-09T05:26:02.342Z,2.28
2022-10-09T05:26:38.845Z,2.08
2022-10-09T05:27:11.074Z,1.85
2022-10-09T05:27:43.937Z,2.00
2022-10-09T05:28:21.395Z,2.30
2022-10-09T05:28:54.659Z,2.10
2022-10-09T05:29:30.330Z,2.25
2022-10-09T05:30:07.367Z,2.30
2022-10-09T05:30:41.826Z,2.58
2022-10-09T05:31:18.440Z,2.05
2022-10-09T05:31:55.433Z,2.30
2022-10-09T05:32:27.717Z,2.53
2022-10-09T05:32:59.981Z,2.20
2022-10-09T05:33:35.144Z,2.00
2022-10-09T05:34:10.121Z,1.90
2022-10-09T05:34:42.458Z,2.30
2022-10-09T05:35:19.425Z,2.00
2022-10-09T05:35:56.868Z,2.10
2022-10-09T05:36:32.413Z,1.90
2022-10-09T05:37:04.648Z,2.08
2022-10-09T05:37:39.501Z,2.13
2022-10-09T05:38:11.701Z,2.30
2022-10-09T05:38:44.073Z,2.15
2022-10-09T05:39:19.265Z,2.30
2022-10-09T05:39:51.488Z,1.90
2022-10-09T05:40:28.338Z,2.30
2022-10-09T05:41:06.481Z,2.35
2022-10-09T05:41:38.702Z,2.42
2022-10-09T05:42:11.043Z,2.60
2022-10-09T05:42:46.428Z,2.00
2022-10-09T05:43:18.840Z,2.10
2022-10-09T05:43:51.203Z,1.98
2022-10-09T05:44:26.182Z,2.50
2022-10-09T05:44:58.554Z,2.25
2022-10-09T05:45:30.867Z,2.40
2022-10-09T05:46:07.516Z,2.30
2022-10-09T05:46:42.362Z,2.30
2022-10-09T05:47:17.957Z,2.10
2022-10-09T05:47:50.199Z,2.28
2022-10-09T05:48:23.114Z,2.60
2022-10-09T05:49:02.347Z,2.60
2022-10-09T05:49:34.614Z,2.70
2022-10-09T05:50:07.620Z,2.47
2022-10-09T05:50:42.438Z,2.40
2022-10-09T05:51:17.030Z,2.60
2022-10-09T05:51:50.061Z,2.45
2022-10-09T05:52:25.015Z,2.50
2022-10-09T05:52:57.346Z,2.40
2022-10-09T05:53:29.553Z,2.47
2022-10-09T05:54:04.841Z,2.45
2022-10-09T05:54:37.058Z,2.80
2022-10-09T05:55:10.198Z,2.08
2022-10-09T05:55:45.001Z,2.33
2022-10-09T05:56:18.962Z,2.40
2022-10-09T05:56:51.529Z,2.33
2022-10-09T05:57:26.334Z,2.47
2022-10-09T05:57:58.534Z,2.42
2022-10-09T05:58:30.758Z,2.70
2022-10-09T05:59:07.772Z,2.20
2022-10-09T05:59:39.990Z,2.50
2022-10-09T06:00:13.815Z,2.60
2022-10-09T06:00:48.622Z,2.55
2022-10-09T06:01:21.686Z,2.72
2022-10-09T06:01:56.881Z,3.10
2022-10-09T06:02:29.284Z,2.70
2022-10-09T06:03:01.609Z,2.20
2022-10-09T06:03:36.435Z,2.50
2022-10-09T06:04:14.149Z,2.58
2022-10-09T06:04:49.003Z,2.80
2022-10-09T06:05:21.758Z,2.80
2022-10-09T06:05:53.998Z,2.70
2022-10-09T06:06:30.750Z,2.60
2022-10-09T06:07:02.994Z,2.35
2022-10-09T06:07:35.235Z,2.40
2022-10-09T06:08:10.049Z,3.08
2022-10-09T06:08:42.294Z,3.10
2022-10-09T06:09:15.641Z,2.88
2022-10-09T06:09:50.496Z,2.90
2022-10-09T06:10:22.706Z,2.33
2022-10-09T06:10:54.906Z,5.03
2022-10-09T06:11:31.822Z,2.85
2022-10-09T06:12:04.383Z,3.15
2022-10-09T06:12:36.641Z,3.03
2022-10-09T06:13:08.853Z,3.35
2022-10-09T06:13:43.959Z,2.60
2022-10-09T06:14:16.203Z,2.70
2022-10-09T06:14:48.438Z,3.25
2022-10-09T06:15:23.283Z,2.70
2022-10-09T06:15:55.621Z,2.90
2022-10-09T06:16:29.540Z,3.10
2022-10-09T06:17:04.518Z,2.95
2022-10-09T06:17:36.800Z,3.03
2022-10-09T06:18:09.009Z,2.92
2022-10-09T06:18:49.085Z,2.90
2022-10-09T06:19:24.569Z,3.20
2022-10-09T06:19:56.913Z,3.58
2022-10-09T06:20:31.782Z,3.88
2022-10-09T06:21:04.371Z,3.08
2022-10-09T06:21:36.644Z,3.78
2022-10-09T06:22:11.530Z,3.33
2022-10-09T06:22:43.747Z,3.28
2022-10-09T06:23:15.967Z,3.13
2022-10-09T06:23:52.762Z,2.90
2022-10-09T06:24:29.012Z,2.88
2022-10-09T06:25:01.606Z,3.33
2022-10-09T06:25:33.833Z,3.30
2022-10-09T06:26:10.777Z,3.20
2022-10-09T06:26:43.006Z,3.10
2022-10-09T06:27:15.309Z,2.45
2022-10-09T06:27:50.242Z,2.97
2022-10-09T06:28:22.926Z,2.60
2022-10-09T06:28:55.468Z,3.15
2022-10-09T06:29:30.293Z,2.85
2022-10-09T06:30:02.521Z,2.97
2022-10-09T06:30:38.511Z,3.00
2022-10-09T06:31:12.694Z,2.63
2022-10-09T06:31:47.570Z,2.90
2022-10-09T06:32:19.826Z,2.78
2022-10-09T06:32:52.356Z,3.15
2022-10-09T06:33:27.350Z,3.25
2022-10-09T06:34:00.817Z,3.42
2022-10-09T06:34:38.252Z,3.33
2022-10-09T06:35:10.534Z,3.65
2022-10-09T06:35:42.794Z,3.13
2022-10-09T06:36:20.069Z,3.53
2022-10-09T06:36:52.286Z,3.55
2022-10-09T06:37:27.114Z,3.72
2022-10-09T06:37:59.327Z,2.95
2022-10-09T06:38:31.641Z,2.83
2022-10-09T06:39:09.598Z,3.10
2022-10-09T06:39:41.838Z,2.83
2022-10-09T06:40:14.193Z,3.00
2022-10-09T06:40:49.009Z,2.90
2022-10-09T06:41:22.983Z,3.28
2022-10-09T06:41:55.206Z,3.25
2022-10-09T06:42:48.102Z,3.30
2022-10-09T06:43:22.824Z,3.20
2022-10-09T06:43:57.154Z,2.90
2022-10-09T06:44:32.366Z,3.13
2022-10-09T06:45:55.277Z,3.00
2022-10-09T06:46:30.276Z,3.00
2022-10-09T06:47:05.118Z,3.03
2022-10-09T06:47:37.686Z,3.45
2022-10-09T06:48:10.264Z,2.97
2022-10-09T06:48:45.710Z,2.72
2022-10-09T06:49:18.264Z,2.90
2022-10-09T06:49:56.367Z,2.35
2022-10-09T06:50:28.985Z,2.92
2022-10-09T06:51:02.632Z,2.65
2022-10-09T06:51:38.565Z,2.42
2022-10-09T06:52:11.137Z,2.50
2022-10-09T06:52:43.717Z,2.65
2022-10-09T06:53:16.409Z,2.25
2022-10-09T06:53:52.905Z,2.70
2022-10-09T06:54:25.458Z,2.10
2022-10-09T06:55:00.727Z,2.70
2022-10-09T06:55:33.593Z,2.40
2022-10-09T06:56:08.974Z,2.97
2022-10-09T06:56:44.910Z,2.55
2022-10-09T06:57:17.526Z,2.60
2022-10-09T06:57:50.070Z,2.75
2022-10-09T06:58:25.538Z,2.80
2022-10-09T06:59:00.542Z,2.80
2022-10-09T06:59:36.366Z,2.95
2022-10-09T07:00:10.391Z,2.95
2022-10-09T07:00:42.987Z,3.60
2022-10-09T07:01:19.866Z,2.65
2022-10-09T07:01:52.564Z,3.20
2022-10-09T07:02:25.232Z,2.90
2022-10-09T07:03:00.621Z,2.78
2022-10-09T07:03:33.932Z,3.33
2022-10-09T07:04:07.923Z,2.80
2022-10-09T07:04:43.233Z,3.30
2022-10-09T07:05:18.743Z,3.15
2022-10-09T07:05:51.294Z,3.10
2022-10-09T07:06:27.897Z,3.03
2022-10-09T07:07:00.565Z,3.72
2022-10-09T07:07:33.142Z,3.00
2022-10-09T07:08:57.141Z,2.65
2022-10-09T07:09:29.380Z,3.25
2022-10-09T07:10:01.752Z,3.05
2022-10-09T07:10:36.634Z,2.97
2022-10-09T07:11:10.268Z,2.90
2022-10-09T07:11:43.812Z,3.22
2022-10-09T07:12:18.671Z,2.70
2022-10-09T07:12:51.181Z,2.80
2022-10-09T07:13:23.801Z,2.95
2022-10-09T07:14:00.626Z,2.73
2022-10-09T07:14:32.841Z,2.97
2022-10-09T07:15:07.229Z,2.75
2022-10-09T07:15:47.799Z,2.67
2022-10-09T07:16:21.777Z,2.55
2022-10-09T07:16:54.195Z,2.53
2022-10-09T07:17:29.745Z,2.25
2022-10-09T07:18:03.208Z,2.70
2022-10-09T07:18:36.857Z,2.65
2022-10-09T07:19:13.353Z,2.30
2022-10-09T07:19:45.894Z,2.30
2022-10-09T07:20:18.469Z,2.50
2022-10-09T07:20:53.572Z,2.40
2022-10-09T07:21:26.122Z,2.25
2022-10-09T07:21:58.661Z,2.75
2022-10-09T07:22:33.775Z,2.65
2022-10-09T07:23:06.397Z,2.45
2022-10-09T07:23:38.978Z,2.28
2022-10-09T07:25:01.166Z,2.53
2022-10-09T07:25:37.838Z,2.30
2022-10-09T07:26:12.654Z,2.17
2022-10-09T07:26:48.828Z,2.37
2022-10-09T07:27:21.074Z,2.50
2022-10-09T07:27:53.310Z,2.47
2022-10-09T07:28:29.027Z,2.87
2022-10-09T07:29:01.732Z,2.58
2022-10-09T07:29:34.107Z,2.47
2022-10-09T07:30:11.309Z,2.08
2022-10-09T07:30:43.612Z,2.70
2022-10-09T07:31:16.335Z,2.70
2022-10-09T07:31:51.460Z,2.67
2022-10-09T07:32:23.754Z,2.97
2022-10-09T07:32:55.991Z,2.40
2022-10-09T07:33:30.838Z,2.70
2022-10-09T07:34:03.286Z,2.35
2022-10-09T07:34:35.492Z,2.38
2022-10-09T07:35:10.935Z,2.55
2022-10-09T07:35:43.190Z,2.40
2022-10-09T07:36:15.446Z,2.78
2022-10-09T07:36:50.450Z,2.63
2022-10-09T07:37:22.752Z,2.80
2022-10-09T07:37:54.979Z,2.43
2022-10-09T07:38:27.509Z,2.63
2022-10-09T07:39:02.439Z,2.50
2022-10-09T07:39:35.645Z,2.58
2022-10-09T07:40:11.024Z,2.20
2022-10-09T07:40:45.919Z,2.60
2022-10-09T07:41:18.415Z,2.80
2022-10-09T07:41:54.427Z,2.25
2022-10-09T07:42:26.699Z,2.35
2022-10-09T07:42:58.919Z,2.80
2022-10-09T07:43:33.882Z,2.85
2022-10-09T07:44:06.121Z,2.57
2022-10-09T07:44:38.352Z,2.72
2022-10-09T07:45:13.817Z,2.25
2022-10-09T07:45:46.287Z,2.88
2022-10-09T07:46:20.593Z,2.53
2022-10-09T07:46:55.439Z,2.30
2022-10-09T07:47:27.670Z,2.13
2022-10-09T07:48:01.296Z,2.47
2022-10-09T07:49:24.254Z,2.70
2022-10-09T07:49:56.461Z,2.10
2022-10-09T07:50:28.734Z,2.30
2022-10-09T07:51:10.468Z,2.50
2022-10-09T07:51:42.801Z,2.17
2022-10-09T07:52:15.001Z,2.10
2022-10-09T07:52:50.045Z,2.40
2022-10-09T07:53:22.452Z,2.63
2022-10-09T07:53:54.858Z,2.20
2022-10-09T07:54:29.656Z,2.65